sensor_id;sensor_type;location;lat;lon;timestamp;P1;durP1;ratioP1;P2;durP2;ratioP2
37657;SDS011;23500;53.268;8.308;2023-02-10T00:01:06;28.48;;;25.88;;
37657;SDS011;23500;53.268;8.308;2023-02-10T00:03:36;27.88;;;25.38;;
37657;SDS011;23500;53.268;8.308;2023-02-10T00:06:02;28.27;;;25.67;;
37657;SDS011;23500;53.268;8.308;2023-02-10T00:08:29;28.05;;;25.55;;
37657;SDS011;23500;53.268;8.308;2023-02-10T00:11:05;28.00;;;25.50;;
37657;SDS011;23500;53.268;8.308;2023-02-10T00:13:33;27.38;;;24.77;;
37657;SDS011;23500;53.268;8.308;2023-02-10T00:15:59;27.45;;;25.02;;
37657;SDS011;23500;53.268;8.308;2023-02-10T00:18:26;28.08;;;25.58;;
37657;SDS011;23500;53.268;8.308;2023-02-10T00:20:53;27.90;;;25.42;;
37657;SDS011;23500;53.268;8.308;2023-02-10T00:23:19;27.65;;;25.17;;
37657;SDS011;23500;53.268;8.308;2023-02-10T00:25:44;27.73;;;25.13;;
37657;SDS011;23500;53.268;8.308;2023-02-10T00:28:11;27.15;;;24.73;;
37657;SDS011;23500;53.268;8.308;2023-02-10T00:30:37;26.30;;;24.05;;
37657;SDS011;23500;53.268;8.308;2023-02-10T00:33:03;26.33;;;23.77;;
37657;SDS011;23500;53.268;8.308;2023-02-10T00:35:29;26.83;;;24.50;;
37657;SDS011;23500;53.268;8.308;2023-02-10T00:37:56;27.08;;;24.58;;
37657;SDS011;23500;53.268;8.308;2023-02-10T00:40:22;27.00;;;24.60;;
37657;SDS011;23500;53.268;8.308;2023-02-10T00:42:47;25.63;;;23.38;;
37657;SDS011;23500;53.268;8.308;2023-02-10T00:45:13;26.38;;;23.88;;
37657;SDS011;23500;53.268;8.308;2023-02-10T00:47:39;26.63;;;24.13;;
37657;SDS011;23500;53.268;8.308;2023-02-10T00:50:05;25.52;;;23.27;;
37657;SDS011;23500;53.268;8.308;2023-02-10T00:52:30;26.55;;;24.10;;
37657;SDS011;23500;53.268;8.308;2023-02-10T00:54:56;24.85;;;22.60;;
37657;SDS011;23500;53.268;8.308;2023-02-10T00:57:22;25.92;;;23.60;;
37657;SDS011;23500;53.268;8.308;2023-02-10T00:59:48;25.47;;;23.13;;
37657;SDS011;23500;53.268;8.308;2023-02-10T01:02:13;25.87;;;23.50;;
37657;SDS011;23500;53.268;8.308;2023-02-10T01:04:39;25.30;;;22.98;;
37657;SDS011;23500;53.268;8.308;2023-02-10T01:07:04;25.23;;;22.93;;
37657;SDS011;23500;53.268;8.308;2023-02-10T01:09:30;25.20;;;22.88;;
37657;SDS011;23500;53.268;8.308;2023-02-10T01:11:56;26.10;;;23.70;;
37657;SDS011;23500;53.268;8.308;2023-02-10T01:14:22;24.60;;;22.50;;
37657;SDS011;23500;53.268;8.308;2023-02-10T01:16:49;25.25;;;23.05;;
37657;SDS011;23500;53.268;8.308;2023-02-10T01:19:14;24.42;;;22.23;;
37657;SDS011;23500;53.268;8.308;2023-02-10T01:21:40;25.45;;;23.15;;
37657;SDS011;23500;53.268;8.308;2023-02-10T01:24:06;24.20;;;22.10;;
37657;SDS011;23500;53.268;8.308;2023-02-10T01:26:32;23.92;;;21.83;;
37657;SDS011;23500;53.268;8.308;2023-02-10T01:28:58;24.05;;;21.95;;
37657;SDS011;23500;53.268;8.308;2023-02-10T01:31:24;23.38;;;21.38;;
37657;SDS011;23500;53.268;8.308;2023-02-10T01:33:51;23.27;;;21.27;;
37657;SDS011;23500;53.268;8.308;2023-02-10T01:36:18;22.60;;;20.70;;
37657;SDS011;23500;53.268;8.308;2023-02-10T01:38:46;21.92;;;19.92;;
37657;SDS011;23500;53.268;8.308;2023-02-10T01:41:13;22.40;;;20.60;;
37657;SDS011;23500;53.268;8.308;2023-02-10T01:43:57;22.42;;;20.52;;
37657;SDS011;23500;53.268;8.308;2023-02-10T01:46:32;22.02;;;20.27;;
37657;SDS011;23500;53.268;8.308;2023-02-10T01:49:08;22.42;;;20.55;;
37657;SDS011;23500;53.268;8.308;2023-02-10T01:51:38;22.27;;;20.45;;
37657;SDS011;23500;53.268;8.308;2023-02-10T01:54:08;21.88;;;20.08;;
37657;SDS011;23500;53.268;8.308;2023-02-10T01:56:39;21.55;;;19.85;;
37657;SDS011;23500;53.268;8.308;2023-02-10T01:59:05;21.50;;;19.70;;
37657;SDS011;23500;53.268;8.308;2023-02-10T02:01:31;21.60;;;19.80;;
37657;SDS011;23500;53.268;8.308;2023-02-10T02:03:57;21.25;;;19.42;;
37657;SDS011;23500;53.268;8.308;2023-02-10T02:06:25;21.25;;;19.45;;
37657;SDS011;23500;53.268;8.308;2023-02-10T02:08:50;21.23;;;19.38;;
37657;SDS011;23500;53.268;8.308;2023-02-10T02:27:56;21.23;;;19.42;;
37657;SDS011;23500;53.268;8.308;2023-02-10T02:30:37;20.90;;;19.08;;
37657;SDS011;23500;53.268;8.308;2023-02-10T02:35:45;20.38;;;18.70;;
37657;SDS011;23500;53.268;8.308;2023-02-10T02:38:17;20.38;;;18.67;;
37657;SDS011;23500;53.268;8.308;2023-02-10T02:40:43;20.95;;;19.15;;
37657;SDS011;23500;53.268;8.308;2023-02-10T02:43:08;21.00;;;19.13;;
37657;SDS011;23500;53.268;8.308;2023-02-10T02:48:11;19.75;;;18.05;;
37657;SDS011;23500;53.268;8.308;2023-02-10T02:50:54;20.38;;;18.55;;
37657;SDS011;23500;53.268;8.308;2023-02-10T03:01:46;19.88;;;18.17;;
37657;SDS011;23500;53.268;8.308;2023-02-10T03:04:19;19.70;;;18.02;;
37657;SDS011;23500;53.268;8.308;2023-02-10T03:06:45;19.17;;;17.55;;
37657;SDS011;23500;53.268;8.308;2023-02-10T03:09:11;18.95;;;17.35;;
37657;SDS011;23500;53.268;8.308;2023-02-10T03:11:37;19.55;;;17.90;;
37657;SDS011;23500;53.268;8.308;2023-02-10T03:14:03;19.48;;;17.77;;
37657;SDS011;23500;53.268;8.308;2023-02-10T03:16:29;18.65;;;17.05;;
37657;SDS011;23500;53.268;8.308;2023-02-10T03:18:54;19.23;;;17.63;;
37657;SDS011;23500;53.268;8.308;2023-02-10T03:21:20;19.92;;;18.23;;
37657;SDS011;23500;53.268;8.308;2023-02-10T03:23:45;18.75;;;17.20;;
37657;SDS011;23500;53.268;8.308;2023-02-10T03:26:11;18.92;;;17.33;;
37657;SDS011;23500;53.268;8.308;2023-02-10T03:28:37;19.05;;;17.42;;
37657;SDS011;23500;53.268;8.308;2023-02-10T03:31:04;18.73;;;17.02;;
37657;SDS011;23500;53.268;8.308;2023-02-10T03:33:32;19.35;;;17.65;;
37657;SDS011;23500;53.268;8.308;2023-02-10T03:35:57;18.70;;;17.10;;
37657;SDS011;23500;53.268;8.308;2023-02-10T03:38:23;19.25;;;17.65;;
37657;SDS011;23500;53.268;8.308;2023-02-10T03:40:50;18.75;;;17.15;;
37657;SDS011;23500;53.268;8.308;2023-02-10T03:43:17;18.60;;;16.92;;
37657;SDS011;23500;53.268;8.308;2023-02-10T03:45:43;19.08;;;17.42;;
37657;SDS011;23500;53.268;8.308;2023-02-10T03:48:09;18.50;;;16.92;;
37657;SDS011;23500;53.268;8.308;2023-02-10T03:50:34;19.00;;;17.40;;
37657;SDS011;23500;53.268;8.308;2023-02-10T03:53:00;17.77;;;16.23;;
37657;SDS011;23500;53.268;8.308;2023-02-10T03:55:26;17.83;;;16.33;;
37657;SDS011;23500;53.268;8.308;2023-02-10T03:57:52;18.20;;;16.65;;
37657;SDS011;23500;53.268;8.308;2023-02-10T04:00:17;19.15;;;17.50;;
37657;SDS011;23500;53.268;8.308;2023-02-10T04:02:43;18.30;;;16.70;;
37657;SDS011;23500;53.268;8.308;2023-02-10T04:05:09;17.45;;;15.95;;
37657;SDS011;23500;53.268;8.308;2023-02-10T04:07:35;17.48;;;15.88;;
37657;SDS011;23500;53.268;8.308;2023-02-10T04:10:02;17.10;;;15.63;;
37657;SDS011;23500;53.268;8.308;2023-02-10T04:12:28;17.88;;;16.38;;
37657;SDS011;23500;53.268;8.308;2023-02-10T04:14:54;17.02;;;15.63;;
37657;SDS011;23500;53.268;8.308;2023-02-10T04:17:20;17.30;;;15.80;;
37657;SDS011;23500;53.268;8.308;2023-02-10T04:19:45;16.90;;;15.50;;
37657;SDS011;23500;53.268;8.308;2023-02-10T04:22:11;17.30;;;15.80;;
37657;SDS011;23500;53.268;8.308;2023-02-10T04:24:37;17.45;;;15.95;;
37657;SDS011;23500;53.268;8.308;2023-02-10T04:27:02;17.10;;;15.73;;
37657;SDS011;23500;53.268;8.308;2023-02-10T04:29:28;17.58;;;16.17;;
37657;SDS011;23500;53.268;8.308;2023-02-10T04:31:54;16.10;;;14.80;;
37657;SDS011;23500;53.268;8.308;2023-02-10T04:34:19;16.60;;;15.15;;
37657;SDS011;23500;53.268;8.308;2023-02-10T04:36:45;17.85;;;16.25;;
37657;SDS011;23500;53.268;8.308;2023-02-10T04:39:11;17.58;;;16.08;;
37657;SDS011;23500;53.268;8.308;2023-02-10T04:41:36;16.77;;;15.38;;
37657;SDS011;23500;53.268;8.308;2023-02-10T04:44:02;16.73;;;15.32;;
37657;SDS011;23500;53.268;8.308;2023-02-10T04:46:28;16.42;;;15.02;;
37657;SDS011;23500;53.268;8.308;2023-02-10T04:48:54;16.10;;;14.70;;
37657;SDS011;23500;53.268;8.308;2023-02-10T04:51:20;16.77;;;15.15;;
37657;SDS011;23500;53.268;8.308;2023-02-10T04:53:45;16.90;;;15.40;;
37657;SDS011;23500;53.268;8.308;2023-02-10T04:56:14;17.23;;;15.77;;
37657;SDS011;23500;53.268;8.308;2023-02-10T04:58:40;16.70;;;15.25;;
37657;SDS011;23500;53.268;8.308;2023-02-10T05:01:06;16.08;;;14.77;;
37657;SDS011;23500;53.268;8.308;2023-02-10T05:03:32;16.55;;;15.13;;
37657;SDS011;23500;53.268;8.308;2023-02-10T05:05:58;16.88;;;15.48;;
37657;SDS011;23500;53.268;8.308;2023-02-10T05:08:24;16.30;;;14.90;;
37657;SDS011;23500;53.268;8.308;2023-02-10T05:10:50;16.23;;;14.88;;
37657;SDS011;23500;53.268;8.308;2023-02-10T05:13:17;15.77;;;14.48;;
37657;SDS011;23500;53.268;8.308;2023-02-10T05:15:42;15.60;;;14.30;;
37657;SDS011;23500;53.268;8.308;2023-02-10T05:18:08;15.82;;;14.52;;
37657;SDS011;23500;53.268;8.308;2023-02-10T05:20:34;15.85;;;14.55;;
37657;SDS011;23500;53.268;8.308;2023-02-10T05:23:00;15.40;;;14.18;;
37657;SDS011;23500;53.268;8.308;2023-02-10T05:25:26;15.15;;;13.95;;
37657;SDS011;23500;53.268;8.308;2023-02-10T05:27:51;15.35;;;14.05;;
37657;SDS011;23500;53.268;8.308;2023-02-10T05:30:17;14.50;;;13.30;;
37657;SDS011;23500;53.268;8.308;2023-02-10T05:32:43;16.17;;;14.88;;
37657;SDS011;23500;53.268;8.308;2023-02-10T05:35:09;15.55;;;14.15;;
37657;SDS011;23500;53.268;8.308;2023-02-10T05:37:35;15.95;;;14.55;;
37657;SDS011;23500;53.268;8.308;2023-02-10T05:40:02;15.00;;;13.82;;
37657;SDS011;23500;53.268;8.308;2023-02-10T05:42:28;14.85;;;13.60;;
37657;SDS011;23500;53.268;8.308;2023-02-10T05:44:53;14.75;;;13.55;;
37657;SDS011;23500;53.268;8.308;2023-02-10T05:47:19;14.60;;;13.32;;
37657;SDS011;23500;53.268;8.308;2023-02-10T05:49:45;15.00;;;13.70;;
37657;SDS011;23500;53.268;8.308;2023-02-10T05:52:10;15.52;;;14.13;;
37657;SDS011;23500;53.268;8.308;2023-02-10T05:54:36;15.88;;;14.48;;
37657;SDS011;23500;53.268;8.308;2023-02-10T05:57:02;15.18;;;13.95;;
37657;SDS011;23500;53.268;8.308;2023-02-10T05:59:28;14.60;;;13.38;;
37657;SDS011;23500;53.268;8.308;2023-02-10T06:01:54;15.30;;;14.00;;
37657;SDS011;23500;53.268;8.308;2023-02-10T06:04:20;13.30;;;12.20;;
37657;SDS011;23500;53.268;8.308;2023-02-10T06:06:46;13.65;;;12.55;;
37657;SDS011;23500;53.268;8.308;2023-02-10T06:09:12;13.35;;;12.25;;
37657;SDS011;23500;53.268;8.308;2023-02-10T06:11:37;14.00;;;12.80;;
37657;SDS011;23500;53.268;8.308;2023-02-10T06:14:03;13.75;;;12.65;;
37657;SDS011;23500;53.268;8.308;2023-02-10T06:16:29;13.60;;;12.50;;
37657;SDS011;23500;53.268;8.308;2023-02-10T06:18:55;13.57;;;12.48;;
37657;SDS011;23500;53.268;8.308;2023-02-10T06:21:21;13.05;;;12.00;;
37657;SDS011;23500;53.268;8.308;2023-02-10T06:23:47;13.15;;;12.02;;
37657;SDS011;23500;53.268;8.308;2023-02-10T06:26:13;13.00;;;11.90;;
37657;SDS011;23500;53.268;8.308;2023-02-10T06:28:39;13.48;;;12.32;;
37657;SDS011;23500;53.268;8.308;2023-02-10T06:31:05;13.38;;;12.18;;
37657;SDS011;23500;53.268;8.308;2023-02-10T06:33:32;13.40;;;12.30;;
37657;SDS011;23500;53.268;8.308;2023-02-10T06:36:00;13.05;;;11.85;;
37657;SDS011;23500;53.268;8.308;2023-02-10T06:38:28;12.98;;;11.77;;
37657;SDS011;23500;53.268;8.308;2023-02-10T06:40:54;13.40;;;12.10;;
37657;SDS011;23500;53.268;8.308;2023-02-10T06:43:20;13.30;;;12.10;;
37657;SDS011;23500;53.268;8.308;2023-02-10T06:45:45;13.18;;;11.88;;
37657;SDS011;23500;53.268;8.308;2023-02-10T06:48:11;14.40;;;11.15;;
37657;SDS011;23500;53.268;8.308;2023-02-10T06:50:36;17.52;;;10.93;;
37657;SDS011;23500;53.268;8.308;2023-02-10T06:53:03;17.48;;;10.18;;
37657;SDS011;23500;53.268;8.308;2023-02-10T06:55:29;18.15;;;10.82;;
37657;SDS011;23500;53.268;8.308;2023-02-10T06:57:57;17.58;;;10.43;;
37657;SDS011;23500;53.268;8.308;2023-02-10T07:00:23;18.23;;;10.70;;
37657;SDS011;23500;53.268;8.308;2023-02-10T07:02:49;23.45;;;10.77;;
37657;SDS011;23500;53.268;8.308;2023-02-10T07:05:15;22.55;;;10.55;;
37657;SDS011;23500;53.268;8.308;2023-02-10T07:07:40;23.38;;;10.70;;
37657;SDS011;23500;53.268;8.308;2023-02-10T07:10:06;20.45;;;10.80;;
37657;SDS011;23500;53.268;8.308;2023-02-10T07:12:32;22.55;;;11.23;;
37657;SDS011;23500;53.268;8.308;2023-02-10T07:14:58;21.88;;;10.68;;
37657;SDS011;23500;53.268;8.308;2023-02-10T07:17:24;24.92;;;10.55;;
37657;SDS011;23500;53.268;8.308;2023-02-10T07:19:50;23.65;;;11.15;;
37657;SDS011;23500;53.268;8.308;2023-02-10T07:22:15;23.98;;;11.60;;
37657;SDS011;23500;53.268;8.308;2023-02-10T07:24:41;22.42;;;11.82;;
37657;SDS011;23500;53.268;8.308;2023-02-10T07:27:07;25.63;;;12.88;;
37657;SDS011;23500;53.268;8.308;2023-02-10T07:29:32;29.20;;;12.55;;
37657;SDS011;23500;53.268;8.308;2023-02-10T07:31:58;28.23;;;12.82;;
37657;SDS011;23500;53.268;8.308;2023-02-10T07:34:24;32.70;;;12.30;;
37657;SDS011;23500;53.268;8.308;2023-02-10T07:36:50;29.05;;;12.95;;
37657;SDS011;23500;53.268;8.308;2023-02-10T07:39:22;27.63;;;11.70;;
37657;SDS011;23500;53.268;8.308;2023-02-10T07:41:48;24.55;;;11.70;;
37657;SDS011;23500;53.268;8.308;2023-02-10T07:44:14;31.27;;;12.93;;
37657;SDS011;23500;53.268;8.308;2023-02-10T07:46:40;32.75;;;13.45;;
37657;SDS011;23500;53.268;8.308;2023-02-10T07:49:08;26.45;;;12.23;;
37657;SDS011;23500;53.268;8.308;2023-02-10T07:51:34;29.52;;;12.52;;
37657;SDS011;23500;53.268;8.308;2023-02-10T07:54:01;32.05;;;12.02;;
37657;SDS011;23500;53.268;8.308;2023-02-10T07:56:27;28.15;;;12.35;;
37657;SDS011;23500;53.268;8.308;2023-02-10T07:58:53;25.95;;;12.30;;
37657;SDS011;23500;53.268;8.308;2023-02-10T08:01:18;25.52;;;11.65;;
37657;SDS011;23500;53.268;8.308;2023-02-10T08:03:44;24.92;;;12.10;;
37657;SDS011;23500;53.268;8.308;2023-02-10T08:06:10;27.58;;;12.35;;
37657;SDS011;23500;53.268;8.308;2023-02-10T08:08:35;27.70;;;12.25;;
37657;SDS011;23500;53.268;8.308;2023-02-10T08:11:04;23.63;;;11.77;;
37657;SDS011;23500;53.268;8.308;2023-02-10T08:13:31;26.02;;;13.02;;
37657;SDS011;23500;53.268;8.308;2023-02-10T08:15:57;25.23;;;12.27;;
37657;SDS011;23500;53.268;8.308;2023-02-10T08:18:23;27.08;;;12.55;;
37657;SDS011;23500;53.268;8.308;2023-02-10T08:20:49;23.13;;;11.63;;
37657;SDS011;23500;53.268;8.308;2023-02-10T08:23:15;23.85;;;11.13;;
37657;SDS011;23500;53.268;8.308;2023-02-10T08:25:43;27.65;;;12.70;;
37657;SDS011;23500;53.268;8.308;2023-02-10T08:28:09;25.20;;;11.63;;
37657;SDS011;23500;53.268;8.308;2023-02-10T08:30:34;25.42;;;12.02;;
37657;SDS011;23500;53.268;8.308;2023-02-10T08:33:00;26.35;;;11.95;;
37657;SDS011;23500;53.268;8.308;2023-02-10T08:35:26;26.15;;;11.55;;
37657;SDS011;23500;53.268;8.308;2023-02-10T08:37:52;25.23;;;11.73;;
37657;SDS011;23500;53.268;8.308;2023-02-10T08:40:17;23.80;;;11.32;;
37657;SDS011;23500;53.268;8.308;2023-02-10T08:42:43;23.85;;;11.25;;
37657;SDS011;23500;53.268;8.308;2023-02-10T08:45:09;19.67;;;10.50;;
37657;SDS011;23500;53.268;8.308;2023-02-10T08:47:35;23.30;;;10.73;;
37657;SDS011;23500;53.268;8.308;2023-02-10T08:50:01;22.30;;;10.68;;
37657;SDS011;23500;53.268;8.308;2023-02-10T08:52:27;21.55;;;10.40;;
37657;SDS011;23500;53.268;8.308;2023-02-10T08:54:52;19.45;;;9.93;;
37657;SDS011;23500;53.268;8.308;2023-02-10T08:57:18;20.95;;;9.90;;
37657;SDS011;23500;53.268;8.308;2023-02-10T08:59:44;19.80;;;10.18;;
37657;SDS011;23500;53.268;8.308;2023-02-10T09:02:10;20.52;;;10.02;;
37657;SDS011;23500;53.268;8.308;2023-02-10T09:04:37;17.42;;;9.60;;
37657;SDS011;23500;53.268;8.308;2023-02-10T09:07:03;18.25;;;9.82;;
37657;SDS011;23500;53.268;8.308;2023-02-10T09:09:29;16.15;;;9.40;;
37657;SDS011;23500;53.268;8.308;2023-02-10T09:11:54;18.40;;;10.15;;
37657;SDS011;23500;53.268;8.308;2023-02-10T09:14:20;15.02;;;8.57;;
37657;SDS011;23500;53.268;8.308;2023-02-10T09:16:46;17.90;;;9.25;;
37657;SDS011;23500;53.268;8.308;2023-02-10T09:19:12;17.90;;;8.57;;
37657;SDS011;23500;53.268;8.308;2023-02-10T09:21:38;15.57;;;8.52;;
37657;SDS011;23500;53.268;8.308;2023-02-10T09:24:03;15.88;;;8.90;;
37657;SDS011;23500;53.268;8.308;2023-02-10T09:26:29;14.07;;;8.48;;
37657;SDS011;23500;53.268;8.308;2023-02-10T09:28:55;15.98;;;8.77;;
37657;SDS011;23500;53.268;8.308;2023-02-10T09:31:22;14.95;;;7.32;;
37657;SDS011;23500;53.268;8.308;2023-02-10T09:33:47;14.85;;;7.57;;
37657;SDS011;23500;53.268;8.308;2023-02-10T09:36:14;14.05;;;7.63;;
37657;SDS011;23500;53.268;8.308;2023-02-10T09:38:41;15.38;;;8.38;;
37657;SDS011;23500;53.268;8.308;2023-02-10T09:55:20;12.55;;;6.93;;
37657;SDS011;23500;53.268;8.308;2023-02-10T09:58:00;11.32;;;6.78;;
37657;SDS011;23500;53.268;8.308;2023-02-10T10:03:00;10.95;;;6.60;;
37657;SDS011;23500;53.268;8.308;2023-02-10T10:08:28;13.38;;;6.47;;
37657;SDS011;23500;53.268;8.308;2023-02-10T10:10:56;10.85;;;6.15;;
37657;SDS011;23500;53.268;8.308;2023-02-10T10:13:28;8.43;;;5.72;;
37657;SDS011;23500;53.268;8.308;2023-02-10T10:18:42;11.10;;;5.88;;
37657;SDS011;23500;53.268;8.308;2023-02-10T10:21:21;8.77;;;5.80;;
37657;SDS011;23500;53.268;8.308;2023-02-10T10:26:29;10.02;;;5.65;;
37657;SDS011;23500;53.268;8.308;2023-02-10T10:29:30;9.05;;;5.75;;
37657;SDS011;23500;53.268;8.308;2023-02-10T10:35:14;8.77;;;5.35;;
37657;SDS011;23500;53.268;8.308;2023-02-10T10:37:40;9.88;;;5.93;;
37657;SDS011;23500;53.268;8.308;2023-02-10T10:40:07;9.82;;;5.50;;
37657;SDS011;23500;53.268;8.308;2023-02-10T10:42:41;9.13;;;5.60;;
37657;SDS011;23500;53.268;8.308;2023-02-10T10:45:34;10.27;;;5.38;;
37657;SDS011;23500;53.268;8.308;2023-02-10T10:48:06;8.25;;;4.95;;
37657;SDS011;23500;53.268;8.308;2023-02-10T10:50:34;7.95;;;4.57;;
37657;SDS011;23500;53.268;8.308;2023-02-10T10:53:02;7.63;;;4.75;;
37657;SDS011;23500;53.268;8.308;2023-02-10T10:55:40;8.13;;;4.90;;
37657;SDS011;23500;53.268;8.308;2023-02-10T10:58:25;9.00;;;5.05;;
37657;SDS011;23500;53.268;8.308;2023-02-10T11:00:54;7.68;;;4.35;;
37657;SDS011;23500;53.268;8.308;2023-02-10T11:03:21;7.05;;;4.60;;
37657;SDS011;23500;53.268;8.308;2023-02-10T11:06:04;6.55;;;3.95;;
37657;SDS011;23500;53.268;8.308;2023-02-10T11:09:15;7.10;;;4.20;;
37657;SDS011;23500;53.268;8.308;2023-02-10T11:11:31;5.70;;;4.25;;
37657;SDS011;23500;53.268;8.308;2023-02-10T11:13:59;7.28;;;4.35;;
37657;SDS011;23500;53.268;8.308;2023-02-10T11:16:25;6.43;;;3.92;;
37657;SDS011;23500;53.268;8.308;2023-02-10T11:18:54;7.57;;;4.03;;
37657;SDS011;23500;53.268;8.308;2023-02-10T11:21:31;7.82;;;4.18;;
37657;SDS011;23500;53.268;8.308;2023-02-10T11:24:02;6.22;;;4.22;;
37657;SDS011;23500;53.268;8.308;2023-02-10T11:26:39;7.45;;;4.05;;
37657;SDS011;23500;53.268;8.308;2023-02-10T11:29:08;6.45;;;3.95;;
37657;SDS011;23500;53.268;8.308;2023-02-10T11:31:37;7.50;;;3.95;;
37657;SDS011;23500;53.268;8.308;2023-02-10T11:34:15;7.43;;;4.10;;
37657;SDS011;23500;53.268;8.308;2023-02-10T11:36:42;5.70;;;3.72;;
37657;SDS011;23500;53.268;8.308;2023-02-10T11:47:35;5.75;;;3.42;;
37657;SDS011;23500;53.268;8.308;2023-02-10T11:50:01;7.00;;;3.65;;
37657;SDS011;23500;53.268;8.308;2023-02-10T11:52:29;4.53;;;3.40;;
37657;SDS011;23500;53.268;8.308;2023-02-10T11:54:56;7.43;;;3.30;;
37657;SDS011;23500;53.268;8.308;2023-02-10T12:08:48;5.43;;;3.15;;
37657;SDS011;23500;53.268;8.308;2023-02-10T12:28:43;6.07;;;3.30;;
37657;SDS011;23500;53.268;8.308;2023-02-10T12:39:22;5.53;;;3.13;;
37657;SDS011;23500;53.268;8.308;2023-02-10T12:50:28;5.05;;;3.10;;
37657;SDS011;23500;53.268;8.308;2023-02-10T12:55:42;6.70;;;3.20;;
37657;SDS011;23500;53.268;8.308;2023-02-10T12:58:25;4.47;;;2.85;;
37657;SDS011;23500;53.268;8.308;2023-02-10T13:03:31;4.93;;;2.90;;
37657;SDS011;23500;53.268;8.308;2023-02-10T13:06:16;5.28;;;3.33;;
37657;SDS011;23500;53.268;8.308;2023-02-10T13:08:50;4.43;;;2.78;;
37657;SDS011;23500;53.268;8.308;2023-02-10T13:14:19;3.95;;;2.92;;
37657;SDS011;23500;53.268;8.308;2023-02-10T13:16:52;6.63;;;2.95;;
37657;SDS011;23500;53.268;8.308;2023-02-10T13:23:01;4.78;;;2.85;;
37657;SDS011;23500;53.268;8.308;2023-02-10T13:25:13;3.83;;;2.50;;
37657;SDS011;23500;53.268;8.308;2023-02-10T13:33:02;5.15;;;2.80;;
37657;SDS011;23500;53.268;8.308;2023-02-10T13:35:40;4.43;;;2.38;;
37657;SDS011;23500;53.268;8.308;2023-02-10T13:38:08;4.40;;;2.67;;
37657;SDS011;23500;53.268;8.308;2023-02-10T13:40:55;3.83;;;2.80;;
37657;SDS011;23500;53.268;8.308;2023-02-10T13:43:42;4.47;;;2.70;;
37657;SDS011;23500;53.268;8.308;2023-02-10T13:46:20;3.97;;;2.70;;
37657;SDS011;23500;53.268;8.308;2023-02-10T13:48:54;4.10;;;2.38;;
37657;SDS011;23500;53.268;8.308;2023-02-10T13:51:32;3.45;;;2.30;;
37657;SDS011;23500;53.268;8.308;2023-02-10T13:54:02;4.55;;;2.67;;
37657;SDS011;23500;53.268;8.308;2023-02-10T13:56:29;4.50;;;2.30;;
37657;SDS011;23500;53.268;8.308;2023-02-10T14:01:41;4.22;;;2.53;;
37657;SDS011;23500;53.268;8.308;2023-02-10T14:06:45;4.10;;;2.40;;
37657;SDS011;23500;53.268;8.308;2023-02-10T14:09:20;5.43;;;2.95;;
37657;SDS011;23500;53.268;8.308;2023-02-10T14:11:55;4.70;;;2.50;;
37657;SDS011;23500;53.268;8.308;2023-02-10T14:14:30;5.15;;;2.67;;
37657;SDS011;23500;53.268;8.308;2023-02-10T14:19:38;4.00;;;2.42;;
37657;SDS011;23500;53.268;8.308;2023-02-10T14:22:17;3.72;;;2.60;;
37657;SDS011;23500;53.268;8.308;2023-02-10T14:24:47;6.10;;;2.50;;
37657;SDS011;23500;53.268;8.308;2023-02-10T14:27:14;4.22;;;2.55;;
37657;SDS011;23500;53.268;8.308;2023-02-10T14:29:45;3.17;;;2.25;;
37657;SDS011;23500;53.268;8.308;2023-02-10T14:32:16;5.00;;;2.30;;
37657;SDS011;23500;53.268;8.308;2023-02-10T14:34:52;3.70;;;2.50;;
37657;SDS011;23500;53.268;8.308;2023-02-10T14:37:30;2.92;;;2.40;;
37657;SDS011;23500;53.268;8.308;2023-02-10T14:40:00;4.78;;;2.40;;
37657;SDS011;23500;53.268;8.308;2023-02-10T14:42:29;5.50;;;2.45;;
37657;SDS011;23500;53.268;8.308;2023-02-10T14:44:57;4.15;;;2.53;;
37657;SDS011;23500;53.268;8.308;2023-02-10T14:47:35;4.10;;;2.17;;
37657;SDS011;23500;53.268;8.308;2023-02-10T14:50:03;5.03;;;2.63;;
37657;SDS011;23500;53.268;8.308;2023-02-10T14:52:31;4.22;;;2.40;;
37657;SDS011;23500;53.268;8.308;2023-02-10T14:54:59;3.42;;;2.40;;
37657;SDS011;23500;53.268;8.308;2023-02-10T14:57:25;4.43;;;2.30;;
37657;SDS011;23500;53.268;8.308;2023-02-10T14:59:56;4.28;;;2.47;;
37657;SDS011;23500;53.268;8.308;2023-02-10T15:02:28;3.67;;;2.20;;
37657;SDS011;23500;53.268;8.308;2023-02-10T15:04:56;3.40;;;2.38;;
37657;SDS011;23500;53.268;8.308;2023-02-10T15:07:34;4.88;;;2.53;;
37657;SDS011;23500;53.268;8.308;2023-02-10T15:10:11;3.88;;;2.30;;
37657;SDS011;23500;53.268;8.308;2023-02-10T15:12:57;3.20;;;2.42;;
37657;SDS011;23500;53.268;8.308;2023-02-10T15:20:33;5.50;;;2.35;;
37657;SDS011;23500;53.268;8.308;2023-02-10T15:30:42;6.63;;;2.30;;
37657;SDS011;23500;53.268;8.308;2023-02-10T15:33:29;3.70;;;2.63;;
37657;SDS011;23500;53.268;8.308;2023-02-10T15:39:20;4.88;;;2.15;;
37657;SDS011;23500;53.268;8.308;2023-02-10T15:43:54;3.92;;;2.42;;
37657;SDS011;23500;53.268;8.308;2023-02-10T15:46:22;4.28;;;2.45;;
37657;SDS011;23500;53.268;8.308;2023-02-10T15:48:49;3.08;;;2.42;;
37657;SDS011;23500;53.268;8.308;2023-02-10T15:51:19;2.92;;;2.20;;
37657;SDS011;23500;53.268;8.308;2023-02-10T15:53:48;6.68;;;2.72;;
37657;SDS011;23500;53.268;8.308;2023-02-10T15:56:15;2.75;;;1.85;;
37657;SDS011;23500;53.268;8.308;2023-02-10T15:58:41;6.25;;;2.53;;
37657;SDS011;23500;53.268;8.308;2023-02-10T16:01:07;4.30;;;2.30;;
37657;SDS011;23500;53.268;8.308;2023-02-10T16:03:33;3.30;;;2.28;;
37657;SDS011;23500;53.268;8.308;2023-02-10T16:05:59;2.88;;;2.20;;
37657;SDS011;23500;53.268;8.308;2023-02-10T16:08:27;2.72;;;2.08;;
37657;SDS011;23500;53.268;8.308;2023-02-10T16:10:53;3.90;;;1.92;;
37657;SDS011;23500;53.268;8.308;2023-02-10T16:13:19;2.95;;;2.30;;
37657;SDS011;23500;53.268;8.308;2023-02-10T16:15:45;2.95;;;2.20;;
37657;SDS011;23500;53.268;8.308;2023-02-10T16:18:15;3.38;;;2.10;;
37657;SDS011;23500;53.268;8.308;2023-02-10T16:20:44;2.60;;;2.15;;
37657;SDS011;23500;53.268;8.308;2023-02-10T16:23:15;4.13;;;2.00;;
37657;SDS011;23500;53.268;8.308;2023-02-10T16:25:42;2.58;;;2.10;;
37657;SDS011;23500;53.268;8.308;2023-02-10T16:28:16;4.60;;;2.28;;
37657;SDS011;23500;53.268;8.308;2023-02-10T16:30:43;3.55;;;2.30;;
37657;SDS011;23500;53.268;8.308;2023-02-10T16:33:09;2.88;;;2.20;;
37657;SDS011;23500;53.268;8.308;2023-02-10T16:35:35;3.33;;;1.95;;
37657;SDS011;23500;53.268;8.308;2023-02-10T16:38:01;2.25;;;1.92;;
37657;SDS011;23500;53.268;8.308;2023-02-10T16:40:29;3.55;;;2.22;;
37657;SDS011;23500;53.268;8.308;2023-02-10T16:42:56;5.22;;;2.08;;
37657;SDS011;23500;53.268;8.308;2023-02-10T16:45:24;3.05;;;2.03;;
37657;SDS011;23500;53.268;8.308;2023-02-10T16:47:51;4.03;;;2.03;;
37657;SDS011;23500;53.268;8.308;2023-02-10T16:50:28;3.20;;;2.00;;
37657;SDS011;23500;53.268;8.308;2023-02-10T16:52:56;3.55;;;2.38;;
37657;SDS011;23500;53.268;8.308;2023-02-10T16:55:21;3.75;;;2.30;;
37657;SDS011;23500;53.268;8.308;2023-02-10T16:57:47;4.43;;;2.30;;
37657;SDS011;23500;53.268;8.308;2023-02-10T17:00:13;2.63;;;1.80;;
37657;SDS011;23500;53.268;8.308;2023-02-10T17:02:40;2.15;;;1.90;;
37657;SDS011;23500;53.268;8.308;2023-02-10T17:05:07;3.65;;;2.00;;
37657;SDS011;23500;53.268;8.308;2023-02-10T17:07:34;4.00;;;2.35;;
37657;SDS011;23500;53.268;8.308;2023-02-10T17:10:00;2.75;;;1.88;;
37657;SDS011;23500;53.268;8.308;2023-02-10T17:12:26;2.58;;;1.98;;